Time;durP1;ratioP1;P1;durP2;ratioP2;P2;SDS_P1;SDS_P2;PMS_P1;PMS_P2;Temp;Humidity;BMP_temperature;BMP_pressure;BME280_temperature;BME280_humidity;BME280_pressure;Samples;Min_cycle;Max_cycle;Signal;HPM_P1;HPM_P2
2021/08/01 00:00:58;;;;;;;20.75;10.43;;;;;;;25.99;53.12;99236.25;5111596;28;20035;-73
2021/08/01 00:03:24;;;;;;;13.63;10.85;;;;;;;25.82;53.73;99244.03;5111372;28;20455;-73
2021/08/01 00:05:49;;;;;;;16.58;11.07;;;;;;;25.73;53.81;99246.72;5112328;28;20027;-73
2021/08/01 00:08:15;;;;;;;16.60;11.93;;;;;;;25.68;54.07;99235.78;5112732;28;20035;-73
2021/08/01 00:10:41;;;;;;;18.73;11.13;;;;;;;25.74;53.71;99234.81;5111122;28;20023;-73
2021/08/01 00:13:06;;;;;;;20.85;11.15;;;;;;;26.05;52.79;99228.75;5112499;28;20040;-73
2021/08/01 00:15:32;;;;;;;16.90;11.63;;;;;;;26.23;52.22;99226.72;5111594;28;20059;-73
2021/08/01 00:17:57;;;;;;;14.77;10.65;;;;;;;26.33;51.49;99234.25;5112481;28;20193;-73
2021/08/01 00:20:23;;;;;;;12.30;10.73;;;;;;;25.95;51.86;99235.56;5112822;28;20020;-73
2021/08/01 00:22:48;;;;;;;18.88;11.95;;;;;;;26.05;51.41;99225.06;5112773;28;20020;-73
2021/08/01 00:25:14;;;;;;;15.02;10.38;;;;;;;25.87;52.23;99219.78;5112476;28;20109;-73
2021/08/01 00:27:40;;;;;;;15.65;11.07;;;;;;;25.73;52.88;99218.09;5112391;28;20556;-73
2021/08/01 00:30:09;;;;;;;16.60;11.77;;;;;;;25.83;51.83;99213.34;5112245;28;20400;-73
2021/08/01 00:32:35;;;;;;;19.30;12.60;;;;;;;25.67;53.14;99205.53;5112498;27;20020;-73
2021/08/01 00:35:00;;;;;;;17.13;10.90;;;;;;;25.52;53.23;99214.47;5112274;28;20530;-73
2021/08/01 00:37:26;;;;;;;15.48;11.63;;;;;;;25.48;53.17;99219.47;5112549;28;20032;-73
2021/08/01 00:39:51;;;;;;;16.25;12.07;;;;;;;25.38;53.39;99232.75;5112272;28;20043;-73
2021/08/01 00:42:20;;;;;;;21.95;11.63;;;;;;;25.34;53.68;99230.00;5111090;28;20511;-73
2021/08/01 00:44:46;;;;;;;22.90;13.70;;;;;;;25.15;53.80;99220.16;5111187;28;20031;-73
2021/08/01 00:47:12;;;;;;;14.40;11.93;;;;;;;25.12;54.11;99228.84;5112018;28;20069;-73
2021/08/01 00:49:38;;;;;;;17.65;12.90;;;;;;;24.87;54.85;99227.31;5112553;28;20036;-73
2021/08/01 00:52:07;;;;;;;21.55;11.80;;;;;;;24.94;54.35;99219.38;5110681;28;20030;-73
2021/08/01 00:54:33;;;;;;;17.05;11.77;;;;;;;25.04;54.03;99220.41;5110956;28;20031;-73
2021/08/01 00:57:02;;;;;;;16.90;11.13;;;;;;;25.11;53.79;99230.09;5111866;28;20039;-73
2021/08/01 00:59:32;;;;;;;20.23;11.50;;;;;;;25.09;53.70;99216.22;5112335;28;20035;-73
2021/08/01 01:02:05;;;;;;;16.23;12.30;;;;;;;24.74;54.46;99210.78;5111978;28;20020;-73
2021/08/01 01:05:02;;;;;;;20.15;12.20;;;;;;;24.77;54.24;99195.63;5110523;28;20038;-73
2021/08/01 01:07:56;;;;;;;17.55;11.50;;;;;;;24.84;54.35;99205.28;5110044;28;20036;-73
2021/08/01 01:10:35;;;;;;;20.85;11.48;;;;;;;24.75;54.91;99200.13;5111923;28;20454;-73
2021/08/01 01:13:13;;;;;;;17.58;12.13;;;;;;;24.63;54.75;99193.03;5110115;28;20096;-73
2021/08/01 01:15:47;;;;;;;19.67;12.13;;;;;;;24.80;54.53;99189.00;5111842;28;20407;-73
2021/08/01 01:18:41;;;;;;;16.70;11.95;;;;;;;24.91;54.14;99188.00;5111612;28;20428;-73
2021/08/01 01:21:19;;;;;;;17.48;11.15;;;;;;;25.08;53.51;99178.19;5060432;28;20488;-73
2021/08/01 01:24:03;;;;;;;15.27;11.80;;;;;;;25.05;53.48;99175.44;5097640;28;20047;-73
2021/08/01 01:26:46;;;;;;;15.50;10.57;;;;;;;25.20;52.94;99173.88;5110031;28;20054;-73
2021/08/01 01:29:31;;;;;;;13.48;11.48;;;;;;;25.02;53.52;99167.72;5110076;28;20031;-73
2021/08/01 01:32:08;;;;;;;17.35;11.23;;;;;;;25.19;53.14;99160.81;5111218;28;20020;-73
2021/08/01 01:34:36;;;;;;;14.40;10.23;;;;;;;25.23;52.71;99157.88;5111191;28;20050;-73
2021/08/01 01:37:05;;;;;;;12.77;10.48;;;;;;;25.19;52.94;99154.28;5109835;28;20020;-73
2021/08/01 01:39:34;;;;;;;17.65;12.40;;;;;;;25.19;52.76;99157.13;5111693;28;20404;-73
2021/08/01 01:42:01;;;;;;;20.05;10.85;;;;;;;25.11;53.36;99155.69;5111074;28;20083;-73
2021/08/01 01:44:28;;;;;;;18.85;10.95;;;;;;;25.13;53.74;99159.72;5110093;28;20035;-73
2021/08/01 01:46:55;;;;;;;13.98;10.85;;;;;;;24.98;54.01;99162.09;5110970;28;20027;-73
2021/08/01 01:49:21;;;;;;;17.67;11.43;;;;;;;24.86;54.16;99157.03;5111375;28;20515;-73
2021/08/01 01:51:47;;;;;;;19.90;11.15;;;;;;;24.88;54.51;99155.34;5110252;28;20065;-73
2021/08/01 01:54:13;;;;;;;14.73;10.57;;;;;;;25.04;53.90;99154.59;5117038;27;20035;-72
2021/08/01 01:56:40;;;;;;;19.15;12.00;;;;;;;25.10;53.81;99160.59;5131241;27;20019;-73
2021/08/01 01:59:05;;;;;;;18.73;13.48;;;;;;;25.01;54.25;99166.94;5130247;27;20096;-72
2021/08/01 02:01:32;;;;;;;20.38;12.32;;;;;;;24.93;54.70;99169.16;5130157;27;20023;-73
2021/08/01 02:03:58;;;;;;;16.02;12.00;;;;;;;24.88;54.32;99180.28;5131679;27;20137;-73
2021/08/01 02:06:23;;;;;;;16.73;12.07;;;;;;;24.69;54.80;99179.81;5129884;27;20110;-73
2021/08/01 02:09:08;;;;;;;18.73;12.15;;;;;;;24.59;55.09;99172.25;5130187;27;20031;-73
2021/08/01 02:11:49;;;;;;;17.88;12.25;;;;;;;24.62;55.14;99177.91;5131061;27;20019;-73
2021/08/01 02:14:25;;;;;;;21.60;12.32;;;;;;;24.64;54.91;99178.28;5131544;27;20031;-73
2021/08/01 02:16:54;;;;;;;14.40;11.25;;;;;;;24.46;55.50;99187.19;5128196;27;20039;-73
2021/08/01 02:19:24;;;;;;;19.63;11.90;;;;;;;24.32;55.77;99196.88;5120094;28;20058;-73
2021/08/01 02:21:50;;;;;;;18.73;12.02;;;;;;;24.17;56.18;99187.75;5129362;27;20888;-73
2021/08/01 02:24:18;;;;;;;19.92;12.43;;;;;;;24.01;56.39;99196.13;5129237;28;20045;-73
2021/08/01 02:26:45;;;;;;;14.60;11.45;;;;;;;23.88;57.09;99199.59;5129189;28;20027;-73
2021/08/01 02:29:12;;;;;;;13.70;12.05;;;;;;;23.79;57.69;99208.72;5131291;27;20032;-73
2021/08/01 02:31:38;;;;;;;19.95;12.38;;;;;;;23.83;57.68;99212.34;5129767;28;20114;-73
2021/08/01 02:34:05;;;;;;;18.33;12.80;;;;;;;23.80;58.03;99206.69;5131408;27;20088;-73
2021/08/01 02:36:32;;;;;;;18.73;12.07;;;;;;;24.07;56.67;99211.59;5133302;27;20027;-73
2021/08/01 02:38:59;;;;;;;13.57;12.18;;;;;;;24.04;56.30;99207.53;5135314;27;20039;-73
2021/08/01 02:41:41;;;;;;;17.15;13.05;;;;;;;24.21;56.06;99202.75;5133987;27;20110;-73
2021/08/01 02:44:20;;;;;;;23.60;12.98;;;;;;;24.32;55.81;99205.44;5134488;27;20038;-73
2021/08/01 02:46:46;;;;;;;22.67;13.32;;;;;;;24.37;55.47;99206.97;5135158;27;20062;-73
2021/08/01 02:49:18;;;;;;;18.98;13.68;;;;;;;24.48;55.40;99209.63;5135323;27;20498;-73
2021/08/01 02:51:49;;;;;;;18.48;12.25;;;;;;;24.61;54.68;99201.22;5135070;27;20488;-73
2021/08/01 02:54:15;;;;;;;17.27;12.15;;;;;;;24.32;55.56;99214.00;5135090;27;20403;-73
2021/08/01 02:56:41;;;;;;;20.42;12.40;;;;;;;24.36;55.57;99228.22;5135221;27;20030;-73
2021/08/01 02:59:08;;;;;;;22.58;14.32;;;;;;;24.48;55.10;99207.56;5134985;27;20760;-73
2021/08/01 03:01:35;;;;;;;17.05;11.13;;;;;;;24.42;55.27;99212.19;5133405;27;20027;-73
2021/08/01 03:04:01;;;;;;;29.58;12.65;;;;;;;24.27;55.66;99213.69;5134815;27;20035;-73
2021/08/01 03:06:32;;;;;;;17.98;12.35;;;;;;;24.19;56.01;99219.53;5133439;27;20060;-73
2021/08/01 03:09:01;;;;;;;28.75;13.50;;;;;;;24.31;55.70;99220.16;5133460;27;20122;-73
2021/08/01 03:11:32;;;;;;;24.63;13.55;;;;;;;24.16;56.27;99220.41;5133193;27;20025;-73
2021/08/01 03:13:58;;;;;;;19.83;13.68;;;;;;;24.22;56.34;99218.66;5133373;27;20039;-73
2021/08/01 03:16:24;;;;;;;16.85;11.63;;;;;;;24.25;55.03;99214.94;5134547;27;20026;-73
2021/08/01 03:18:49;;;;;;;21.48;11.93;;;;;;;24.31;54.76;99214.44;5127675;27;20023;-73
2021/08/01 03:21:15;;;;;;;22.05;12.70;;;;;;;24.46;54.16;99221.50;5120267;27;20034;-73
2021/08/01 03:23:40;;;;;;;13.73;11.52;;;;;;;24.36;54.19;99228.22;5128074;27;20047;-73
2021/08/01 03:26:05;;;;;;;19.27;12.35;;;;;;;24.42;54.25;99223.63;5121908;27;20104;-73
2021/08/01 03:28:31;;;;;;;18.80;11.82;;;;;;;24.49;53.64;99216.97;5127731;27;20038;-73
2021/08/01 03:30:56;;;;;;;22.75;12.40;;;;;;;24.34;54.26;99213.56;5109998;27;20032;-73
2021/08/01 03:33:22;;;;;;;21.80;12.48;;;;;;;24.38;53.77;99214.31;5117732;27;20045;-71
2021/08/01 03:35:47;;;;;;;20.00;12.77;;;;;;;24.37;53.94;99212.69;5112404;28;20611;-72
2021/08/01 03:38:15;;;;;;;74.93;15.15;;;;;;;24.25;54.02;99217.81;5118820;27;20553;-76
2021/08/01 03:40:41;;;;;;;26.83;13.48;;;;;;;24.33;53.83;99212.75;5118475;27;20043;-75
2021/08/01 03:43:07;;;;;;;19.33;11.50;;;;;;;24.40;53.58;99200.41;5117008;27;20055;-73
2021/08/01 03:45:33;;;;;;;22.10;12.27;;;;;;;24.35;53.84;99198.84;5120105;27;20015;-73
2021/08/01 03:47:58;;;;;;;17.45;12.25;;;;;;;24.44;53.90;99201.13;5123668;27;20095;-84
2021/08/01 03:50:24;;;;;;;38.30;12.35;;;;;;;24.45;53.80;99197.03;5128869;27;20050;-73
2021/08/01 03:52:49;;;;;;;33.17;12.25;;;;;;;24.46;53.63;99203.56;5130758;27;20019;-75
2021/08/01 03:55:14;;;;;;;28.13;12.35;;;;;;;24.41;53.70;99202.00;5129794;27;20028;-72
2021/08/01 03:57:40;;;;;;;20.00;11.18;;;;;;;24.42;53.86;99203.63;5130255;27;20027;-72
2021/08/01 04:00:06;;;;;;;18.40;11.55;;;;;;;24.42;53.76;99186.47;5128607;27;20027;-72
2021/08/01 04:02:36;;;;;;;20.95;12.38;;;;;;;24.46;53.98;99203.56;5132051;27;20443;-72
2021/08/01 04:05:02;;;;;;;;;;;;;;;24.34;54.08;99204.97;5133300;27;20042;-72
2021/08/01 04:07:27;;;;;;;16.92;11.95;;;;;;;24.46;54.05;99209.28;5131212;27;20060;-72
2021/08/01 04:09:53;;;;;;;24.63;12.82;;;;;;;24.56;53.89;99202.53;5133507;27;20031;-72
2021/08/01 04:12:20;;;;;;;19.88;12.38;;;;;;;24.57;53.58;99215.59;5133617;27;20027;-72
2021/08/01 04:14:46;;;;;;;22.50;14.00;;;;;;;24.43;54.68;99216.66;5132033;27;20091;-72
2021/08/01 04:17:11;;;;;;;23.02;12.98;;;;;;;24.30;55.49;99218.53;5133456;27;20019;-72
2021/08/01 04:19:37;;;;;;;23.75;13.90;;;;;;;24.32;55.02;99222.59;5133583;27;20389;-72
2021/08/01 04:22:02;;;;;;;20.23;13.18;;;;;;;24.37;55.22;99227.78;5133257;27;20046;-73
2021/08/01 04:24:28;;;;;;;16.42;12.00;;;;;;;24.32;55.49;99225.44;5132758;27;20040;-71
2021/08/01 04:26:54;;;;;;;14.68;12.77;;;;;;;24.43;54.67;99213.81;5133249;27;20027;-79
2021/08/01 04:29:19;;;;;;;22.13;13.15;;;;;;;24.48;54.92;99207.56;5131859;27;20050;-73
2021/08/01 04:31:45;;;;;;;26.30;14.25;;;;;;;24.56;54.50;99224.59;5132967;27;20432;-76
2021/08/01 04:34:11;;;;;;;19.60;13.02;;;;;;;24.44;54.38;99223.19;5131665;27;20035;-75
2021/08/01 04:36:37;;;;;;;18.38;14.05;;;;;;;24.32;54.99;99227.47;5132820;27;20022;-73
2021/08/01 04:39:02;;;;;;;22.20;13.93;;;;;;;24.39;54.76;99218.78;5133153;27;20031;-73
2021/08/01 04:41:28;;;;;;;19.15;13.95;;;;;;;24.32;55.82;99222.59;5132557;27;20473;-73
2021/08/01 04:43:53;;;;;;;17.67;14.07;;;;;;;24.36;55.63;99225.34;5131525;27;20122;-72
2021/08/01 04:46:19;;;;;;;19.52;14.80;;;;;;;24.47;55.19;99223.09;5132884;27;20072;-72
2021/08/01 04:48:44;;;;;;;21.52;13.95;;;;;;;24.47;55.42;99222.31;5131216;27;20024;-76
2021/08/01 04:51:10;;;;;;;22.33;14.45;;;;;;;24.48;55.37;99227.56;5131734;27;20023;-74
2021/08/01 04:53:36;;;;;;;25.05;15.30;;;;;;;24.44;55.96;99228.91;5132647;27;20038;-72
2021/08/01 04:56:02;;;;;;;22.35;14.13;;;;;;;24.36;56.84;99216.78;5132653;27;20400;-80
2021/08/01 04:58:27;;;;;;;20.48;13.75;;;;;;;24.51;56.29;99231.63;5130164;27;20042;-74
2021/08/01 05:00:52;;;;;;;21.25;15.82;;;;;;;24.51;56.58;99226.72;5132489;27;20019;-74
2021/08/01 05:03:18;;;;;;;21.13;14.45;;;;;;;24.55;56.12;99220.91;5132660;27;20039;-73
2021/08/01 05:05:43;;;;;;;22.63;16.08;;;;;;;24.76;55.09;99227.47;5130988;27;20023;-73
2021/08/01 05:08:09;;;;;;;24.00;14.95;;;;;;;24.81;54.92;99224.94;5131000;27;20042;-73
2021/08/01 05:10:34;;;;;;;23.20;16.92;;;;;;;24.78;55.66;99230.72;5132491;27;20056;-73
2021/08/01 05:13:04;;;;;;;21.05;15.13;;;;;;;24.74;56.09;99232.81;5131939;27;20031;-73
2021/08/01 05:15:30;;;;;;;28.15;15.70;;;;;;;24.79;56.04;99224.56;5130938;27;20412;-73
2021/08/01 05:17:55;;;;;;;24.55;16.13;;;;;;;24.87;55.41;99227.31;5132044;27;20034;-73
2021/08/01 05:20:21;;;;;;;25.25;16.73;;;;;;;24.91;55.05;99228.03;5132481;27;20038;-73
2021/08/01 05:22:46;;;;;;;29.63;16.00;;;;;;;24.97;55.39;99229.13;5131885;27;20031;-74
2021/08/01 05:25:12;;;;;;;26.15;16.77;;;;;;;25.00;55.33;99231.13;5131760;27;20051;-73
2021/08/01 05:27:37;;;;;;;22.60;15.88;;;;;;;24.90;55.91;99237.84;5132087;27;20033;-72
2021/08/01 05:30:03;;;;;;;20.30;15.32;;;;;;;24.98;55.19;99233.63;5131753;27;20023;-73
2021/08/01 05:32:33;;;;;;;23.30;15.23;;;;;;;25.09;54.72;99234.16;5131984;27;20035;-73
2021/08/01 05:34:59;;;;;;;;;;;;;;;25.15;55.12;99227.94;5132555;27;20035;-73
2021/08/01 05:37:24;;;;;;;21.00;15.32;;;;;;;25.21;54.75;99229.03;5131982;27;20276;-72
2021/08/01 05:39:50;;;;;;;22.73;15.23;;;;;;;25.24;54.32;99231.03;5132025;27;20030;-72
2021/08/01 05:42:16;;;;;;;26.92;16.05;;;;;;;25.28;54.03;99239.50;5132132;27;20068;-71
2021/08/01 05:44:41;;;;;;;28.60;14.32;;;;;;;25.32;54.16;99243.91;5132192;27;20052;-72
2021/08/01 05:47:07;;;;;;;18.75;14.85;;;;;;;25.30;53.15;99234.97;5131622;27;20651;-72
2021/08/01 05:49:33;;;;;;;18.65;14.88;;;;;;;25.41;54.40;99233.94;5130354;27;20035;-72
2021/08/01 05:51:59;;;;;;;20.10;14.35;;;;;;;25.35;54.28;99233.63;5121226;27;20492;-71
2021/08/01 05:54:25;;;;;;;25.00;15.43;;;;;;;25.41;54.18;99237.59;5119938;27;20035;-74
2021/08/01 05:56:50;;;;;;;21.90;13.98;;;;;;;25.60;53.19;99238.84;5130454;27;20519;-72
2021/08/01 05:59:16;;;;;;;19.08;14.30;;;;;;;25.64;53.22;99233.81;5130469;27;20071;-73
2021/08/01 06:01:41;;;;;;;27.40;14.50;;;;;;;25.81;52.56;99239.56;5130796;27;20512;-76
2021/08/01 06:04:06;;;;;;;23.25;15.93;;;;;;;25.92;53.02;99230.72;5131516;27;20594;-72
2021/08/01 06:06:32;;;;;;;20.90;14.82;;;;;;;25.86;53.60;99235.38;5131460;27;20019;-72
2021/08/01 06:08:57;;;;;;;22.30;15.95;;;;;;;25.84;54.21;99240.75;5131386;27;20088;-72
2021/08/01 06:11:23;;;;;;;25.60;14.60;;;;;;;25.90;53.12;99225.44;5131203;27;20135;-72
2021/08/01 06:13:49;;;;;;;25.80;14.40;;;;;;;26.06;52.11;99213.19;5130021;27;20488;-71
2021/08/01 06:16:15;;;;;;;21.67;12.95;;;;;;;26.05;51.88;99216.47;5131303;27;20213;-72
2021/08/01 06:18:44;;;;;;;19.55;13.50;;;;;;;26.14;52.57;99228.13;5130086;28;20444;-72
2021/08/01 06:21:19;;;;;;;22.42;13.57;;;;;;;26.26;52.50;99220.09;5129827;28;20054;-72
2021/08/01 06:23:47;;;;;;;16.48;14.38;;;;;;;26.38;52.08;99216.47;5131167;27;20069;-72
2021/08/01 06:26:14;;;;;;;22.17;12.52;;;;;;;26.52;50.61;99218.16;5131060;27;20407;-72
2021/08/01 06:28:40;;;;;;;26.67;13.55;;;;;;;26.51;50.87;99225.16;5129931;28;20023;-72
2021/08/01 06:31:07;;;;;;;24.98;14.98;;;;;;;26.61;51.24;99221.19;5131248;27;20028;-72
2021/08/01 06:33:34;;;;;;;19.80;14.05;;;;;;;26.70;51.04;99214.00;5131007;27;20041;-72
2021/08/01 06:36:00;;;;;;;23.85;14.85;;;;;;;26.72;50.84;99218.03;5131108;27;20019;-72
2021/08/01 06:38:25;;;;;;;24.55;16.40;;;;;;;26.87;49.68;99214.78;5131105;27;20123;-72
2021/08/01 06:40:51;;;;;;;29.63;18.58;;;;;;;26.88;49.73;99211.47;5131104;27;20055;-72
2021/08/01 06:43:17;;;;;;;87.03;54.22;;;;;;;26.92;48.77;99214.22;5129494;28;20039;-73
2021/08/01 06:45:42;;;;;;;62.08;39.63;;;;;;;27.07;48.39;99216.69;5129963;28;20106;-72
2021/08/01 06:48:08;;;;;;;82.65;47.47;;;;;;;27.11;48.42;99211.63;5131150;27;20118;-72
2021/08/01 06:50:35;;;;;;;79.03;48.60;;;;;;;27.18;48.57;99220.03;5129555;28;20545;-72
2021/08/01 06:53:00;;;;;;;80.95;48.30;;;;;;;27.24;47.66;99212.44;5130788;27;20038;-72
2021/08/01 06:55:26;;;;;;;96.93;55.17;;;;;;;27.36;47.59;99210.88;5115640;27;20032;-72
2021/08/01 06:57:51;;;;;;;156.68;81.10;;;;;;;27.42;47.36;99211.09;5118752;28;20088;-76
2021/08/01 07:00:20;;;;;;;40.35;27.40;;;;;;;27.47;45.43;99201.91;5109052;28;20485;-75
2021/08/01 07:02:53;;;;;;;58.58;39.65;;;;;;;27.63;46.35;99205.97;5108084;28;20035;-73
2021/08/01 07:05:18;;;;;;;108.18;71.30;;;;;;;27.64;46.24;99198.97;5128346;27;20050;-75
2021/08/01 07:07:44;;;;;;;34.20;21.90;;;;;;;27.69;45.77;99190.56;5109147;28;20122;-74
2021/08/01 07:10:10;;;;;;;25.30;15.75;;;;;;;27.79;46.29;99184.94;5113438;27;20551;-76
2021/08/01 07:12:38;;;;;;;40.65;23.52;;;;;;;27.92;45.24;99185.72;5112323;28;20027;-76
2021/08/01 07:15:04;;;;;;;68.93;35.80;;;;;;;27.99;44.98;99190.41;5121828;27;20027;-74
2021/08/01 07:17:30;;;;;;;37.65;15.07;;;;;;;28.07;44.34;99191.78;5121897;28;20034;-73
2021/08/01 07:19:55;;;;;;;22.95;12.93;;;;;;;28.20;44.16;99188.09;5127658;27;20032;-72
2021/08/01 07:22:21;;;;;;;20.40;11.95;;;;;;;28.34;43.97;99181.84;5131670;27;20023;-73
2021/08/01 07:24:47;;;;;;;15.57;11.38;;;;;;;28.40;44.22;99185.75;5131079;27;20044;-73
2021/08/01 07:27:12;;;;;;;27.83;12.23;;;;;;;28.55;43.52;99179.47;5132021;27;20070;-74
2021/08/01 07:29:38;;;;;;;24.60;13.75;;;;;;;28.67;43.75;99180.69;5131569;27;20039;-72
2021/08/01 07:32:03;;;;;;;20.70;12.68;;;;;;;28.79;43.03;99176.16;5131472;27;20027;-73
2021/08/01 07:34:29;;;;;;;22.58;12.02;;;;;;;28.79;41.97;99176.97;5132337;27;20046;-74
2021/08/01 07:36:54;;;;;;;18.95;11.65;;;;;;;28.91;41.92;99178.19;5132743;27;20076;-73
2021/08/01 07:39:20;;;;;;;16.65;10.73;;;;;;;28.96;41.69;99168.94;5133732;27;20031;-73
2021/08/01 07:41:46;;;;;;;16.38;10.55;;;;;;;29.07;41.73;99171.41;5132968;27;20023;-74
2021/08/01 07:44:11;;;;;;;25.17;12.60;;;;;;;29.22;41.16;99174.53;5133444;27;20031;-74
2021/08/01 07:46:37;;;;;;;25.83;12.93;;;;;;;29.27;41.99;99173.13;5131320;27;20041;-74
2021/08/01 07:49:02;;;;;;;17.10;11.50;;;;;;;29.40;40.18;99176.72;5133178;27;20095;-73
2021/08/01 07:51:29;;;;;;;22.42;12.32;;;;;;;29.44;40.87;99167.94;5133332;27;20084;-74
2021/08/01 07:53:54;;;;;;;16.52;10.85;;;;;;;29.58;41.45;99165.78;5132611;27;20039;-74
2021/08/01 07:56:20;;;;;;;12.95;10.90;;;;;;;29.65;39.46;99168.34;5133286;27;20146;-73
2021/08/01 07:58:45;;;;;;;15.45;11.18;;;;;;;29.67;38.70;99165.78;5132648;27;20453;-74
2021/08/01 08:01:11;;;;;;;20.98;11.15;;;;;;;29.78;39.49;99165.34;5133155;27;20102;-73
2021/08/01 08:03:36;;;;;;;16.02;10.52;;;;;;;29.86;39.57;99151.44;5133803;27;20072;-74
2021/08/01 08:06:05;;;;;;;20.92;11.55;;;;;;;30.02;38.90;99156.91;5114737;27;20126;-73
2021/08/01 08:08:31;;;;;;;12.70;11.25;;;;;;;30.03;39.31;99155.63;5114912;27;20031;-73
2021/08/01 08:10:57;;;;;;;15.85;11.40;;;;;;;30.16;39.56;99163.34;5131990;27;20027;-76
2021/08/01 08:13:22;;;;;;;16.52;10.75;;;;;;;30.25;38.41;99160.47;5131913;27;20412;-73
2021/08/01 08:15:48;;;;;;;12.65;10.35;;;;;;;30.32;37.60;99156.47;5131441;27;20022;-74
2021/08/01 08:18:13;;;;;;;19.10;11.35;;;;;;;30.39;37.95;99162.72;5131782;27;20458;-72
2021/08/01 08:20:39;;;;;;;15.55;10.52;;;;;;;30.39;37.87;99153.28;5132076;27;20124;-73
2021/08/01 08:23:04;;;;;;;15.95;10.95;;;;;;;30.51;37.95;99158.09;5132718;27;20037;-72
2021/08/01 08:25:30;;;;;;;11.73;9.82;;;;;;;30.63;37.05;99153.47;5133198;27;20030;-75
2021/08/01 08:27:55;;;;;;;19.33;11.40;;;;;;;30.75;36.41;99154.59;5133175;27;20058;-75
2021/08/01 08:30:21;;;;;;;18.45;11.02;;;;;;;30.86;36.63;99144.63;5131737;27;20023;-75
2021/08/01 08:32:46;;;;;;;17.98;10.70;;;;;;;30.96;36.92;99141.22;5133065;27;20091;-73
2021/08/01 08:35:11;;;;;;;21.05;12.00;;;;;;;30.96;37.17;99137.56;5132811;27;20030;-73
2021/08/01 08:37:48;;;;;;;21.67;10.77;;;;;;;31.07;36.54;99134.16;5133418;27;20031;-74
2021/08/01 08:40:14;;;;;;;29.85;14.18;;;;;;;31.16;36.20;99133.31;5131572;27;20045;-75
2021/08/01 08:42:42;;;;;;;21.88;12.05;;;;;;;31.27;35.40;99138.63;5133167;27;20442;-75
2021/08/01 08:45:09;;;;;;;15.43;9.02;;;;;;;31.38;34.94;99139.69;5132671;27;20027;-75
2021/08/01 08:47:37;;;;;;;14.98;11.52;;;;;;;31.41;35.52;99140.81;5132892;27;20311;-75
2021/08/01 08:50:04;;;;;;;26.33;13.52;;;;;;;31.45;35.75;99141.41;5132515;27;20098;-75
2021/08/01 08:52:31;;;;;;;22.63;11.65;;;;;;;31.69;35.07;99139.88;5132684;27;20053;-75
2021/08/01 08:55:00;;;;;;;14.50;8.95;;;;;;;31.76;35.02;99131.63;5132442;27;20027;-75
2021/08/01 08:57:32;;;;;;;15.30;10.00;;;;;;;31.77;34.56;99132.41;5132584;27;20394;-72
2021/08/01 09:00:09;;;;;;;16.30;10.80;;;;;;;31.87;34.09;99133.22;5132460;27;20039;-74
2021/08/01 09:02:35;;;;;;;28.00;20.73;;;;;;;32.08;34.93;99122.63;5132393;27;20114;-74
2021/08/01 09:05:01;;;;;;;49.22;24.27;;;;;;;32.20;33.53;99129.41;5132398;27;20535;-72
2021/08/01 09:07:27;;;;;;;17.42;11.10;;;;;;;32.14;33.67;99128.53;5132203;27;20027;-77
2021/08/01 09:09:54;;;;;;;22.13;11.27;;;;;;;32.18;33.77;99121.25;5112099;27;20109;-74
2021/08/01 09:12:20;;;;;;;18.92;11.10;;;;;;;32.28;33.17;99127.75;5092115;27;20171;-74
2021/08/01 09:14:46;;;;;;;16.95;10.15;;;;;;;32.43;32.79;99104.69;5122009;27;20031;-75
2021/08/01 09:17:12;;;;;;;29.40;9.25;;;;;;;32.50;32.42;99109.28;5120187;27;20450;-75
2021/08/01 09:19:43;;;;;;;16.17;9.50;;;;;;;32.68;32.01;99107.50;5112818;27;20040;-74
2021/08/01 09:22:20;;;;;;;21.63;9.38;;;;;;;32.81;32.51;99105.09;5121499;27;20428;-75
2021/08/01 09:24:48;;;;;;;15.63;10.63;;;;;;;32.90;33.00;99104.22;5120902;27;20108;-74
2021/08/01 09:27:32;;;;;;;12.57;8.80;;;;;;;33.02;31.11;99099.44;5121361;27;20015;-73
2021/08/01 09:29:58;;;;;;;15.55;9.30;;;;;;;33.08;32.13;99093.75;5121838;27;20099;-74
2021/08/01 09:32:24;;;;;;;14.65;8.77;;;;;;;33.13;31.82;99090.94;5120870;27;20481;-73
2021/08/01 09:34:50;;;;;;;18.05;9.18;;;;;;;33.35;31.34;99088.88;5120250;27;20071;-73
2021/08/01 09:37:33;;;;;;;14.15;10.65;;;;;;;33.37;31.12;99092.88;5122661;27;20054;-74
2021/08/01 09:40:10;;;;;;;11.88;8.75;;;;;;;33.32;30.19;99090.72;5120045;27;20507;-73
2021/08/01 09:42:44;;;;;;;14.40;8.45;;;;;;;33.46;29.86;99078.31;5120725;27;20016;-73
2021/08/01 09:45:20;;;;;;;18.10;8.52;;;;;;;33.64;29.53;99069.84;5120145;27;20051;-71
2021/08/01 09:47:48;;;;;;;16.67;8.88;;;;;;;33.59;30.15;99072.16;5120364;27;20026;-73
2021/08/01 09:50:15;;;;;;;18.02;9.25;;;;;;;33.74;28.21;99063.41;5120299;27;20031;-71
2021/08/01 09:52:42;;;;;;;10.98;7.93;;;;;;;33.97;29.13;99055.00;5120216;27;20408;-75
2021/08/01 09:55:19;;;;;;;19.88;8.88;;;;;;;33.85;29.03;99053.25;5112634;27;20032;-73
2021/08/01 09:57:50;;;;;;;21.88;9.60;;;;;;;33.88;29.52;99050.16;5115008;27;20023;-76
2021/08/01 10:00:16;;;;;;;12.70;8.38;;;;;;;34.01;29.11;99046.91;5094972;27;20520;-72
2021/08/01 10:02:42;;;;;;;13.95;8.85;;;;;;;33.92;28.74;99038.34;5131247;27;20019;-72
2021/08/01 10:05:28;;;;;;;16.20;9.02;;;;;;;33.87;29.66;99039.06;5131434;27;20077;-71
2021/08/01 10:07:54;;;;;;;17.25;9.13;;;;;;;34.17;27.51;99038.91;5129933;27;20036;-72
2021/08/01 10:10:25;;;;;;;34.33;8.35;;;;;;;34.09;28.86;99040.66;5112944;27;20023;-73
2021/08/01 10:12:53;;;;;;;21.95;8.80;;;;;;;34.28;28.47;99035.31;5122727;27;20054;-72
2021/08/01 10:15:19;;;;;;;12.55;8.32;;;;;;;34.28;28.90;99027.44;5129499;27;20031;-72
2021/08/01 10:17:45;;;;;;;11.45;9.18;;;;;;;34.44;28.05;99025.22;5131069;27;20034;-73
2021/08/01 10:20:11;;;;;;;13.95;8.68;;;;;;;34.35;28.81;99020.38;5129609;27;20301;-73
2021/08/01 10:22:39;;;;;;;12.57;8.45;;;;;;;34.52;27.83;99014.78;5107902;28;20171;-71
2021/08/01 10:25:10;;;;;;;11.55;9.00;;;;;;;34.57;27.59;99011.13;5098763;28;20051;-71
2021/08/01 10:27:40;;;;;;;18.40;9.27;;;;;;;34.85;28.59;99007.63;5104128;28;20031;-71
2021/08/01 10:30:06;;;;;;;14.75;10.52;;;;;;;35.06;28.43;99004.66;5108027;28;20080;-71
2021/08/01 10:32:36;;;;;;;19.95;10.85;;;;;;;35.04;27.85;98995.66;5109063;28;20023;-72
2021/08/01 10:35:06;;;;;;;23.85;10.52;;;;;;;35.01;28.21;98990.88;5111640;28;20023;-73
2021/08/01 10:37:37;;;;;;;17.17;11.52;;;;;;;35.11;27.88;98983.56;5108030;28;20027;-73
2021/08/01 10:40:06;;;;;;;16.45;10.70;;;;;;;35.14;29.17;98981.72;5126645;28;20663;-72
2021/08/01 10:42:33;;;;;;;17.57;11.03;;;;;;;35.13;29.03;98977.22;5127118;28;20084;-73
2021/08/01 10:44:59;;;;;;;18.10;9.85;;;;;;;35.21;28.01;98975.44;5128129;27;20050;-73
2021/08/01 10:47:26;;;;;;;15.23;10.07;;;;;;;35.23;26.86;98966.19;5129188;27;20043;-73
2021/08/01 10:49:52;;;;;;;20.00;10.93;;;;;;;35.32;27.43;98965.97;5108727;27;20447;-72
2021/08/01 10:52:18;;;;;;;20.63;11.27;;;;;;;35.47;28.04;98967.91;5108894;28;20027;-74
2021/08/01 10:55:01;;;;;;;17.88;11.18;;;;;;;35.50;28.35;98958.16;5122020;27;20480;-75
2021/08/01 10:57:31;;;;;;;18.70;11.23;;;;;;;35.54;27.43;98956.63;5119509;27;20019;-73
2021/08/01 10:59:57;;;;;;;24.17;10.57;;;;;;;35.75;27.76;98958.53;5129032;27;20073;-74
2021/08/01 11:02:23;;;;;;;18.20;9.93;;;;;;;35.83;27.56;98960.41;5124896;27;20031;-74
2021/08/01 11:04:51;;;;;;;15.43;10.25;;;;;;;36.01;24.88;98961.25;5128253;27;20023;-73
2021/08/01 11:07:26;;;;;;;18.38;9.05;;;;;;;35.98;26.04;98951.47;5120609;27;20020;-73
2021/08/01 11:10:12;;;;;;;14.30;8.75;;;;;;;36.22;25.79;98944.41;5114250;27;20035;-73
2021/08/01 11:12:42;;;;;;;17.00;8.63;;;;;;;36.27;24.50;98942.81;5108198;27;20073;-73
2021/08/01 11:15:10;;;;;;;18.92;9.20;;;;;;;36.42;25.11;98938.84;5123557;27;20054;-73
2021/08/01 11:18:01;;;;;;;15.00;7.95;;;;;;;36.44;25.79;98936.19;5117781;27;20397;-73
2021/08/01 11:20:31;;;;;;;14.75;9.35;;;;;;;36.69;25.23;98931.47;5106136;27;20039;-73
2021/08/01 11:22:58;;;;;;;12.07;7.55;;;;;;;36.73;23.70;98916.59;5118736;27;20059;-73